Time;durP1;ratioP1;P1;durP2;ratioP2;P2;SDS_P1;SDS_P2;PMS_P1;PMS_P2;Temp;Humidity;BMP_temperature;BMP_pressure;BME280_temperature;BME280_humidity;BME280_pressure;Samples;Min_cycle;Max_cycle;Signal;HPM_P1;HPM_P2
2022/10/31 00:02:23;;;;;;;11.23;6.50;;;17.10;99.90;;;;;;4951638;29;20470;-85
2022/10/31 00:04:57;;;;;;;11.40;6.50;;;16.90;99.90;;;;;;4938713;29;20491;-83
2022/10/31 00:11:20;;;;;;;10.00;7.37;;;16.60;99.90;;;;;;4926775;29;20486;-84
2022/10/31 00:14:21;;;;;;;8.90;6.67;;;16.70;99.90;;;;;;4953348;29;20479;-84
2022/10/31 00:16:56;;;;;;;9.07;6.80;;;16.70;99.90;;;;;;4945312;29;20487;-83
2022/10/31 00:22:44;;;;;;;9.23;6.60;;;16.70;99.90;;;;;;4953100;29;20470;-84
2022/10/31 00:25:33;;;;;;;;;;;;;;;;;;;;;
2022/10/31 00:28:31;;;;;;;10.17;6.97;;;16.70;99.90;;;;;;4955584;29;20452;-85
2022/10/31 00:31:28;;;;;;;10.97;7.43;;;16.70;99.90;;;;;;4960278;28;20495;-85
2022/10/31 00:34:29;;;;;;;11.13;7.10;;;16.70;99.90;;;;;;4951281;29;20465;-83
2022/10/31 00:37:21;;;;;;;9.10;6.17;;;16.50;99.90;;;;;;4947904;29;20490;-85
2022/10/31 00:39:56;;;;;;;12.40;8.10;;;16.40;99.90;;;;;;4952998;28;20488;-84
2022/10/31 00:46:11;;;;;;;10.27;7.60;;;16.20;99.90;;;;;;4951520;29;20444;-85
2022/10/31 00:48:55;;;;;;;8.47;6.87;;;16.20;99.90;;;;;;4957638;29;20520;-85
2022/10/31 00:51:55;;;;;;;8.83;7.40;;;16.30;99.90;;;;;;4959580;28;20468;-86
2022/10/31 00:54:39;;;;;;;10.70;6.80;;;16.30;99.90;;;;;;4910658;29;20495;-86
2022/10/31 00:57:17;;;;;;;10.87;6.63;;;16.50;99.90;;;;;;4965328;29;20467;-86
2022/10/31 00:59:52;;;;;;;9.63;7.10;;;16.40;99.90;;;;;;4950280;29;20492;-83
2022/10/31 01:02:19;;;;;;;7.00;6.20;;;16.40;99.90;;;;;;4968651;29;20468;-84
2022/10/31 01:04:51;;;;;;;7.60;6.70;;;16.30;99.90;;;;;;4953398;29;20460;-84
2022/10/31 01:07:23;;;;;;;13.63;7.73;;;16.10;99.90;;;;;;4954713;29;20501;-83
2022/10/31 01:09:59;;;;;;;10.63;7.37;;;16.20;99.90;;;;;;4960929;29;20491;-81
2022/10/31 01:12:44;;;;;;;12.07;7.17;;;16.40;99.90;;;;;;4974067;28;20456;-82
2022/10/31 01:15:19;;;;;;;11.50;7.40;;;16.40;99.90;;;;;;4962653;29;20452;-82
2022/10/31 01:17:51;;;;;;;11.23;6.60;;;16.30;99.90;;;;;;4968773;29;20530;-82
2022/10/31 01:20:18;;;;;;;9.23;6.77;;;16.10;99.90;;;;;;4955073;29;20480;-83
2022/10/31 01:22:47;;;;;;;10.00;7.00;;;15.90;99.90;;;;;;4946360;29;20504;-85
2022/10/31 01:25:14;;;;;;;11.00;7.30;;;16.00;99.90;;;;;;4942505;29;20478;-83
2022/10/31 01:27:45;;;;;;;11.83;6.53;;;16.10;99.90;;;;;;4951021;29;20520;-84
2022/10/31 01:30:44;;;;;;;9.20;6.10;;;16.10;99.90;;;;;;4960991;29;20488;-84
2022/10/31 01:33:22;;;;;;;8.63;7.03;;;16.10;99.90;;;;;;4929935;29;20484;-85
2022/10/31 01:36:10;;;;;;;8.10;7.30;;;16.10;99.90;;;;;;4959415;29;20468;-83
2022/10/31 01:38:48;;;;;;;8.40;6.80;;;15.90;99.90;;;;;;4953827;29;20615;-85
2022/10/31 01:41:30;;;;;;;9.77;6.60;;;15.80;99.90;;;;;;4962843;28;20623;-84
2022/10/31 01:44:37;;;;;;;11.10;6.97;;;15.70;99.90;;;;;;4947463;29;20535;-84
2022/10/31 01:47:32;;;;;;;13.50;6.40;;;15.90;99.90;;;;;;4958021;29;20483;-84
2022/10/31 01:50:03;;;;;;;10.20;7.30;;;16.10;99.90;;;;;;4864895;29;20555;-85
2022/10/31 01:52:53;;;;;;;12.57;7.00;;;16.10;99.90;;;;;;4870346;29;20474;-85
2022/10/31 01:55:35;;;;;;;11.07;6.80;;;15.90;99.90;;;;;;4882006;29;20455;-85
2022/10/31 01:58:21;;;;;;;8.30;6.87;;;15.70;99.90;;;;;;4880125;29;20493;-84
2022/10/31 02:01:12;;;;;;;8.13;7.07;;;15.90;99.90;;;;;;4859101;29;20523;-85
2022/10/31 02:03:57;;;;;;;13.30;7.90;;;16.00;99.90;;;;;;4880829;29;20551;-84
2022/10/31 02:06:51;;;;;;;12.27;6.93;;;15.80;99.90;;;;;;4866265;29;20479;-85
2022/10/31 02:09:50;;;;;;;7.80;6.97;;;15.70;99.90;;;;;;4949578;29;20484;-85
2022/10/31 02:12:21;;;;;;;8.97;6.23;;;15.70;99.90;;;;;;4941467;29;20494;-85
2022/10/31 02:14:55;;;;;;;8.37;6.03;;;15.60;99.90;;;;;;4939728;29;20451;-84
2022/10/31 02:18:00;;;;;;;9.33;6.17;;;15.60;99.90;;;;;;4948821;28;20504;-84
2022/10/31 02:21:00;;;;;;;9.83;7.33;;;15.70;99.90;;;;;;4936006;29;20532;-83
2022/10/31 02:24:17;;;;;;;7.80;6.40;;;15.60;99.90;;;;;;4938837;29;20459;-85
2022/10/31 02:27:21;;;;;;;8.93;6.40;;;15.60;99.90;;;;;;4957987;29;20472;-82
2022/10/31 02:30:35;;;;;;;13.90;7.50;;;15.70;99.90;;;;;;4941913;29;20479;-83
2022/10/31 02:33:44;;;;;;;13.47;6.57;;;16.00;99.90;;;;;;4942013;29;20496;-84
2022/10/31 02:36:39;;;;;;;10.60;6.70;;;16.00;99.90;;;;;;4939689;29;20565;-85
2022/10/31 02:40:07;;;;;;;10.27;7.70;;;16.10;99.90;;;;;;4942750;28;20491;-85
2022/10/31 02:43:17;;;;;;;;;;;;;;;;;;;;;
2022/10/31 02:46:37;;;;;;;9.93;6.70;;;15.80;99.90;;;;;;4949846;29;20475;-84
2022/10/31 02:49:31;;;;;;;7.33;6.10;;;15.90;99.90;;;;;;4883998;29;20483;-85
2022/10/31 02:52:25;;;;;;;10.43;6.93;;;15.70;99.90;;;;;;4945841;29;20447;-84
2022/10/31 02:54:58;;;;;;;10.47;7.00;;;15.60;99.90;;;;;;4952739;29;20868;-84
2022/10/31 02:57:36;;;;;;;7.40;6.70;;;15.80;99.90;;;;;;4944911;29;20448;-83
2022/10/31 03:00:14;;;;;;;10.13;6.80;;;15.80;99.90;;;;;;4930405;29;20476;-84
2022/10/31 03:03:20;;;;;;;9.37;6.43;;;15.80;99.90;;;;;;4957507;29;20527;-82
2022/10/31 03:06:15;;;;;;;10.13;6.60;;;15.80;99.90;;;;;;4957515;29;20488;-83
2022/10/31 03:08:57;;;;;;;9.17;5.73;;;16.10;99.90;;;;;;4964658;28;20450;-82
2022/10/31 03:11:57;;;;;;;10.30;7.17;;;16.30;99.90;;;;;;4955300;29;20470;-84
2022/10/31 03:15:10;;;;;;;9.73;7.10;;;16.20;99.90;;;;;;4960033;28;20474;-83
2022/10/31 03:17:50;;;;;;;8.00;6.97;;;16.30;99.90;;;;;;4927746;29;20465;-82
2022/10/31 03:20:37;;;;;;;10.70;7.80;;;16.10;99.90;;;;;;4947715;29;20470;-84
2022/10/31 03:24:02;;;;;;;13.70;7.00;;;15.90;99.90;;;;;;4957510;29;20458;-85
2022/10/31 03:26:32;;;;;;;9.63;6.67;;;15.90;99.90;;;;;;4960900;29;20517;-84
2022/10/31 03:29:07;;;;;;;7.73;6.43;;;15.80;99.90;;;;;;4942089;28;20457;-82
2022/10/31 03:31:55;;;;;;;8.83;6.20;;;15.70;99.90;;;;;;4955451;29;20534;-83
2022/10/31 03:34:50;;;;;;;9.23;6.30;;;15.50;99.90;;;;;;4943621;29;20447;-85
2022/10/31 03:37:30;;;;;;;9.00;6.97;;;15.60;99.90;;;;;;4959673;29;20487;-84
2022/10/31 03:40:10;;;;;;;10.77;7.60;;;15.50;99.90;;;;;;4942112;29;20480;-83
2022/10/31 03:42:49;;;;;;;8.00;7.00;;;15.40;99.90;;;;;;4964326;29;20435;-82
2022/10/31 03:45:28;;;;;;;8.60;6.90;;;15.50;99.90;;;;;;4964390;29;20480;-82
2022/10/31 03:48:02;;;;;;;13.40;7.87;;;15.40;99.90;;;;;;4961751;29;20437;-83
2022/10/31 03:51:16;;;;;;;8.90;6.47;;;15.50;99.90;;;;;;4937882;29;20484;-83
2022/10/31 03:54:11;;;;;;;13.10;6.97;;;15.50;99.90;;;;;;4940274;29;20457;-83
2022/10/31 03:57:05;;;;;;;9.00;5.63;;;15.40;99.90;;;;;;4931182;29;20460;-83
2022/10/31 03:59:44;;;;;;;10.80;6.67;;;15.20;99.90;;;;;;4946885;29;20473;-85
2022/10/31 04:02:28;;;;;;;7.87;7.07;;;15.40;99.90;;;;;;4953543;29;20464;-85
2022/10/31 04:05:17;;;;;;;8.30;6.40;;;15.30;99.90;;;;;;4956830;29;20445;-82
2022/10/31 04:08:27;;;;;;;11.33;7.40;;;15.30;99.90;;;;;;4977803;28;20447;-84
2022/10/31 04:11:15;;;;;;;17.07;7.40;;;15.30;99.90;;;;;;4963833;28;20485;-84
2022/10/31 04:13:51;;;;;;;11.43;7.00;;;15.20;99.90;;;;;;4958721;29;20514;-85
2022/10/31 04:16:33;;;;;;;12.93;7.07;;;15.00;99.90;;;;;;4946982;29;20538;-83
2022/10/31 04:19:06;;;;;;;10.90;7.00;;;15.00;99.90;;;;;;4944706;29;20506;-83
2022/10/31 04:21:54;;;;;;;9.40;6.97;;;15.10;99.90;;;;;;4948196;29;20460;-84
2022/10/31 04:24:27;;;;;;;8.20;6.73;;;15.00;99.90;;;;;;4944273;29;20526;-85
2022/10/31 04:27:23;;;;;;;7.20;6.50;;;15.00;99.90;;;;;;4958486;29;20468;-84
2022/10/31 04:30:03;;;;;;;15.57;7.60;;;14.90;99.90;;;;;;4940576;29;20488;-85
2022/10/31 04:32:45;;;;;;;11.20;7.40;;;15.00;99.90;;;;;;4945167;29;20495;-85
2022/10/31 04:35:25;;;;;;;7.97;6.17;;;15.00;99.90;;;;;;4948646;29;20814;-84
2022/10/31 04:37:51;;;;;;;10.63;7.17;;;15.00;99.90;;;;;;4953953;29;20456;-85
2022/10/31 04:40:32;;;;;;;8.77;6.33;;;15.20;99.90;;;;;;4962259;28;20489;-85
2022/10/31 04:43:11;;;;;;;10.47;6.80;;;15.10;99.90;;;;;;4949457;29;20551;-86
2022/10/31 04:45:42;;;;;;;12.40;7.13;;;15.20;99.90;;;;;;4962837;29;20509;-85
2022/10/31 04:48:16;;;;;;;10.77;6.83;;;15.20;99.90;;;;;;4962990;29;20528;-84
2022/10/31 04:51:16;;;;;;;17.13;10.33;;;15.00;99.90;;;;;;4935656;29;20515;-85
2022/10/31 04:53:58;;;;;;;13.30;9.80;;;14.90;99.90;;;;;;4946653;29;20443;-83
2022/10/31 04:56:42;;;;;;;15.23;8.73;;;15.10;99.90;;;;;;4964055;29;20538;-82
2022/10/31 04:59:21;;;;;;;24.87;9.50;;;14.90;99.90;;;;;;4952375;29;20448;-84
2022/10/31 05:02:13;;;;;;;18.93;10.70;;;14.90;99.90;;;;;;4939713;29;20947;-84
2022/10/31 05:05:07;;;;;;;21.00;9.47;;;15.00;99.90;;;;;;4948084;29;20452;-84
2022/10/31 05:08:07;;;;;;;19.47;9.10;;;15.00;99.90;;;;;;4938213;29;20543;-84
2022/10/31 05:10:44;;;;;;;13.27;7.70;;;15.10;99.90;;;;;;4942829;29;20500;-85
2022/10/31 05:13:17;;;;;;;13.33;8.10;;;14.90;99.90;;;;;;4958697;29;20464;-82
2022/10/31 05:16:04;;;;;;;14.63;7.90;;;14.80;99.90;;;;;;4945018;29;20494;-83
2022/10/31 05:18:42;;;;;;;18.03;8.30;;;14.90;99.90;;;;;;4945606;29;20499;-83
2022/10/31 05:21:27;;;;;;;22.07;9.67;;;14.80;99.90;;;;;;4956602;28;20502;-83
2022/10/31 05:24:21;;;;;;;17.07;8.60;;;14.90;99.90;;;;;;4943982;29;20467;-85
2022/10/31 05:26:59;;;;;;;18.33;8.70;;;14.80;99.90;;;;;;4942439;29;20484;-84
2022/10/31 05:29:50;;;;;;;16.93;7.97;;;14.90;99.90;;;;;;4955120;28;20567;-83
2022/10/31 05:32:22;;;;;;;18.87;8.70;;;14.80;99.90;;;;;;4959713;29;20552;-83
2022/10/31 05:35:10;;;;;;;;;;;;;;;;;;;;;
2022/10/31 05:38:03;;;;;;;8.20;6.63;;;14.80;99.90;;;;;;4953151;29;20489;-83
2022/10/31 05:41:02;;;;;;;10.60;7.50;;;14.70;99.90;;;;;;4943168;29;20504;-84
2022/10/31 05:43:37;;;;;;;12.10;7.53;;;14.60;99.90;;;;;;4945358;29;20552;-84
2022/10/31 05:46:46;;;;;;;11.60;7.03;;;14.50;99.90;;;;;;4945474;29;20884;-84
2022/10/31 05:49:22;;;;;;;11.27;7.50;;;14.50;99.90;;;;;;4943635;28;20547;-84
2022/10/31 05:52:05;;;;;;;13.50;6.60;;;14.50;99.90;;;;;;4944358;29;21080;-84
2022/10/31 05:54:59;;;;;;;9.10;7.43;;;14.40;99.90;;;;;;4936244;29;20479;-83
2022/10/31 05:57:55;;;;;;;12.33;8.53;;;14.50;99.90;;;;;;4942360;29;20506;-85
2022/10/31 06:00:41;;;;;;;12.47;7.10;;;14.30;99.90;;;;;;4954396;29;20497;-84
2022/10/31 06:03:20;;;;;;;13.47;7.60;;;14.30;99.90;;;;;;4961797;29;20458;-84
2022/10/31 06:09:15;;;;;;;11.40;6.90;;;14.50;99.90;;;;;;4963049;28;20982;-83
2022/10/31 06:11:46;;;;;;;14.67;7.73;;;14.50;99.90;;;;;;4946984;29;20492;-84
2022/10/31 06:14:27;;;;;;;10.90;6.63;;;14.40;99.90;;;;;;4951686;28;20467;-82
2022/10/31 06:21:18;;;;;;;9.53;6.03;;;14.40;99.90;;;;;;4974144;28;20479;-84
2022/10/31 06:24:06;;;;;;;8.10;6.70;;;14.40;99.90;;;;;;4963566;28;20454;-83
2022/10/31 06:26:51;;;;;;;7.83;6.60;;;14.10;99.90;;;;;;4962713;28;20511;-82
2022/10/31 06:29:41;;;;;;;9.57;6.03;;;14.20;99.90;;;;;;4956170;28;20504;-81
2022/10/31 06:32:51;;;;;;;10.63;7.20;;;14.40;99.90;;;;;;4975903;28;20503;-83
2022/10/31 06:36:04;;;;;;;10.03;7.23;;;14.20;99.90;;;;;;4951920;29;21011;-82
2022/10/31 06:39:06;;;;;;;9.20;7.07;;;14.30;99.90;;;;;;4958758;28;20949;-82
2022/10/31 06:41:52;;;;;;;8.27;6.03;;;14.30;99.90;;;;;;4937772;29;20467;-84
2022/10/31 06:44:33;;;;;;;7.60;6.53;;;14.40;99.90;;;;;;4939216;29;20452;-82
2022/10/31 06:47:24;;;;;;;7.53;6.63;;;14.40;99.90;;;;;;4938927;29;20495;-83
2022/10/31 06:50:05;;;;;;;;;;;;;;;;;;;;;
2022/10/31 06:53:05;;;;;;;11.20;7.23;;;14.20;99.90;;;;;;4880211;29;20453;-84
2022/10/31 06:56:07;;;;;;;11.07;6.40;;;14.40;99.90;;;;;;4871258;29;20446;-85
2022/10/31 06:58:50;;;;;;;13.03;8.00;;;14.70;99.90;;;;;;4869669;29;20566;-84
2022/10/31 07:01:54;;;;;;;11.90;7.27;;;14.90;99.90;;;;;;4884685;29;20620;-83
2022/10/31 07:04:56;;;;;;;7.40;6.60;;;14.90;99.90;;;;;;4857232;29;20463;-84
2022/10/31 07:08:56;;;;;;;17.90;8.40;;;14.60;99.90;;;;;;4871609;29;20470;-84
2022/10/31 07:12:26;;;;;;;13.17;8.23;;;14.50;99.90;;;;;;4855991;29;21033;-84
2022/10/31 07:15:36;;;;;;;15.90;7.77;;;14.40;99.90;;;;;;4876555;29;20841;-85
2022/10/31 07:18:15;;;;;;;9.50;7.13;;;14.50;99.90;;;;;;4870730;29;20469;-83
2022/10/31 07:21:08;;;;;;;10.47;7.60;;;14.40;99.90;;;;;;4852744;29;20468;-83
2022/10/31 07:23:57;;;;;;;12.60;7.10;;;14.50;99.90;;;;;;4851689;29;20488;-83
2022/10/31 07:26:48;;;;;;;9.67;6.80;;;14.60;99.90;;;;;;4852377;29;20464;-81
2022/10/31 07:29:49;;;;;;;10.00;6.63;;;14.60;99.90;;;;;;4891089;29;20481;-85
2022/10/31 07:33:10;;;;;;;;;;;;;;;;;;;;;
2022/10/31 07:36:22;;;;;;;11.97;7.30;;;14.60;99.90;;;;;;4930640;29;20465;-85
2022/10/31 07:39:17;;;;;;;10.20;7.50;;;14.60;99.90;;;;;;4951971;29;20504;-85
2022/10/31 07:42:34;;;;;;;14.47;8.80;;;14.80;99.90;;;;;;4932232;29;20457;-85
2022/10/31 07:45:50;;;;;;;;;;;;;;;;;;;;;
2022/10/31 07:49:06;;;;;;;17.13;7.90;;;14.80;99.90;;;;;;4961481;29;20504;-83
2022/10/31 07:52:36;;;;;;;17.17;8.40;;;14.70;99.90;;;;;;4935596;29;20483;-83
2022/10/31 07:55:45;;;;;;;14.80;7.93;;;14.70;99.90;;;;;;4923389;29;20472;-85
2022/10/31 07:58:46;;;;;;;12.40;7.83;;;14.70;99.90;;;;;;4928225;29;20537;-83
2022/10/31 08:05:39;;;;;;;13.47;7.70;;;15.50;99.90;;;;;;4901536;29;20459;-85
2022/10/31 08:08:51;;;;;;;10.40;7.03;;;15.60;99.90;;;;;;4920663;29;20425;-85
2022/10/31 08:11:51;;;;;;;14.90;7.03;;;15.40;99.90;;;;;;4920248;29;20484;-84
2022/10/31 08:14:41;;;;;;;10.43;6.60;;;15.30;99.90;;;;;;4936127;29;20449;-84
2022/10/31 08:17:18;;;;;;;10.17;7.50;;;15.20;99.90;;;;;;4921729;29;20465;-83
2022/10/31 08:19:58;;;;;;;10.70;7.00;;;15.20;99.90;;;;;;4933871;29;20494;-84
2022/10/31 08:22:59;;;;;;;9.90;7.30;;;15.20;99.90;;;;;;4944537;29;20507;-85
2022/10/31 08:25:42;;;;;;;11.40;7.90;;;15.10;99.90;;;;;;4941748;29;20518;-84
2022/10/31 08:28:40;;;;;;;8.70;6.97;;;14.90;99.90;;;;;;4938698;29;20467;-84
2022/10/31 08:32:01;;;;;;;11.93;7.80;;;15.00;99.90;;;;;;4884631;29;20491;-83
2022/10/31 08:35:24;;;;;;;11.90;7.40;;;15.20;99.90;;;;;;4828167;29;20450;-83
2022/10/31 08:38:23;;;;;;;18.93;7.83;;;15.20;99.90;;;;;;4886978;29;20488;-82
2022/10/31 08:41:26;;;;;;;9.60;7.93;;;15.20;99.90;;;;;;4884657;29;20561;-81
2022/10/31 08:44:20;;;;;;;13.83;8.30;;;15.20;99.90;;;;;;4901238;29;20795;-82
2022/10/31 08:51:27;;;;;;;9.40;6.87;;;15.20;99.90;;;;;;4905501;29;20507;-82
2022/10/31 08:54:36;;;;;;;15.33;7.40;;;15.30;99.90;;;;;;4901728;29;20931;-84
2022/10/31 08:57:11;;;;;;;14.97;7.33;;;15.30;99.90;;;;;;4935691;29;20464;-85
2022/10/31 09:00:06;;;;;;;11.53;7.40;;;15.50;99.90;;;;;;4953565;29;20477;-84
2022/10/31 09:03:17;;;;;;;14.80;7.50;;;15.30;99.90;;;;;;4945083;29;20443;-85
2022/10/31 09:06:14;;;;;;;12.40;8.00;;;15.60;99.90;;;;;;4961882;29;20515;-84
2022/10/31 09:09:42;;;;;;;15.27;7.77;;;15.80;99.90;;;;;;4865514;29;20443;-85
2022/10/31 09:13:38;;;;;;;10.30;7.90;;;15.80;99.90;;;;;;4821147;29;20889;-84
2022/10/31 09:16:58;;;;;;;9.30;6.90;;;15.70;99.90;;;;;;4828242;29;20459;-85
2022/10/31 09:20:18;;;;;;;12.00;7.10;;;15.80;99.90;;;;;;4698648;30;20492;-84
2022/10/31 09:24:00;;;;;;;;;;;;;;;;;;;;;
2022/10/31 09:27:01;;;;;;;9.50;7.23;;;15.90;99.90;;;;;;4743498;30;20498;-84
2022/10/31 09:30:09;;;;;;;10.83;6.93;;;16.10;99.90;;;;;;4763497;30;20509;-84
2022/10/31 09:33:26;;;;;;;11.53;7.63;;;16.20;99.90;;;;;;4745099;30;20557;-85
2022/10/31 09:36:46;;;;;;;;;;;;;;;;;;;;;
2022/10/31 09:40:14;;;;;;;10.90;7.47;;;16.20;99.90;;;;;;4769930;30;20462;-82
2022/10/31 09:43:29;;;;;;;12.57;9.33;;;16.40;99.90;;;;;;4752555;30;20465;-83
2022/10/31 09:55:30;;;;;;;10.93;7.40;;;18.30;99.90;;;;;;4944251;28;20557;-84
2022/10/31 09:58:32;;;;;;;11.37;8.13;;;19.00;97.80;;;;;;4977017;28;20846;-86
2022/10/31 10:02:10;;;;;;;12.13;8.10;;;18.60;97.20;;;;;;4979592;28;20540;-85
2022/10/31 10:05:14;;;;;;;10.03;6.60;;;18.20;98.40;;;;;;4972475;28;20448;-84
2022/10/31 10:08:42;;;;;;;12.57;7.90;;;17.90;98.70;;;;;;4964701;28;20452;-86
2022/10/31 10:12:16;;;;;;;;;;;;;;;;;;;;;
2022/10/31 10:15:50;;;;;;;8.70;6.80;;;17.60;99.80;;;;;;4876894;28;20512;-82
2022/10/31 10:19:02;;;;;;;12.00;8.43;;;17.60;99.90;;;;;;4982578;28;21043;-86
2022/10/31 10:30:53;;;;;;;12.90;7.00;;;18.20;99.10;;;;;;4928429;23;20467;-85
2022/10/31 10:37:34;;;;;;;10.17;7.37;;;18.20;99.30;;;;;;4952924;29;20455;-84
2022/10/31 10:40:38;;;;;;;8.77;6.23;;;18.30;98.90;;;;;;4949653;29;20453;-85
2022/10/31 10:44:17;;;;;;;10.10;7.00;;;18.50;98.80;;;;;;4946066;29;20456;-85
2022/10/31 10:47:52;;;;;;;12.13;7.10;;;18.50;98.90;;;;;;4882952;29;20465;-85
2022/10/31 10:51:08;;;;;;;;;;;;;;;;;;;;;
2022/10/31 10:54:51;;;;;;;11.70;6.67;;;18.50;98.90;;;;;;4922746;29;20461;-83
2022/10/31 11:06:05;;;;;;;9.90;5.80;;;18.90;98.10;;;;;;4925020;29;20509;-85
2022/10/31 11:09:19;;;;;;;6.93;5.87;;;18.90;97.50;;;;;;4879193;29;20441;-83
2022/10/31 11:12:00;;;;;;;7.70;5.23;;;18.80;98.00;;;;;;4915824;29;20514;-84
2022/10/31 11:15:05;;;;;;;7.37;5.57;;;18.80;97.70;;;;;;4944597;29;20463;-84
2022/10/31 11:18:03;;;;;;;9.30;6.40;;;19.10;97.00;;;;;;4941619;29;20542;-86
2022/10/31 11:55:17;;;;;;;8.57;6.33;;;19.30;97.00;;;;;;4972949;28;20474;-85
2022/10/31 12:02:41;;;;;;;8.97;5.20;;;19.30;96.80;;;;;;4976905;28;20495;-84
2022/10/31 12:10:25;;;;;;;12.27;5.27;;;19.40;96.80;;;;;;4871368;29;21003;-84
2022/10/31 12:14:20;;;;;;;;;;;;;;;;;;;;;
2022/10/31 12:21:39;;;;;;;6.77;4.80;;;19.60;95.80;;;;;;5087605;23;20487;-82
2022/10/31 12:29:08;;;;;;;6.10;4.60;;;19.80;95.00;;;;;;4921754;29;20464;-83
2022/10/31 12:32:30;;;;;;;10.73;4.90;;;19.60;95.30;;;;;;4916396;29;20483;-83
2022/10/31 12:35:42;;;;;;;6.37;4.50;;;19.80;95.50;;;;;;4919138;29;20451;-84
2022/10/31 12:39:30;;;;;;;7.60;4.77;;;19.90;95.10;;;;;;4921834;29;20438;-83
2022/10/31 12:42:39;;;;;;;10.47;4.87;;;20.00;94.80;;;;;;4894653;29;20471;-84
2022/10/31 12:49:37;;;;;;;;;;;;;;;;;;;;;
2022/10/31 12:53:10;;;;;;;6.40;4.43;;;19.90;94.90;;;;;;4895154;29;20514;-84
2022/10/31 13:03:37;;;;;;;;;;;;;;;;;;;;;
2022/10/31 13:07:14;;;;;;;;;;;;;;;;;;;;;
2022/10/31 13:10:55;;;;;;;;;;;;;;;;;;;;;
2022/10/31 13:14:28;;;;;;;6.50;4.30;;;19.90;94.50;;;;;;4900608;29;20531;-86
2022/10/31 13:25:34;;;;;;;8.90;4.83;;;20.00;94.80;;;;;;4873833;28;20458;-86
2022/10/31 13:36:28;;;;;;;;;;;;;;;;;;;;;
2022/10/31 13:47:53;;;;;;;7.53;4.80;;;19.90;94.70;;;;;;4825761;29;20842;-85
2022/10/31 14:05:21;;;;;;;5.17;4.67;;;20.00;95.30;;;;;;5016760;28;20458;-83
2022/10/31 14:16:29;;;;;;;14.37;4.73;;;20.10;95.60;;;;;;4966530;28;20462;-86
2022/10/31 14:20:00;;;;;;;6.10;4.53;;;20.00;95.70;;;;;;4905855;29;20518;-85
2022/10/31 14:27:13;;;;;;;4.67;3.60;;;19.90;95.90;;;;;;4924299;28;20513;-84
2022/10/31 14:36:00;;;;;;;7.67;5.30;;;19.80;95.90;;;;;;3255343;23;20483;-85
2022/10/31 14:42:52;;;;;;;8.97;5.90;;;19.70;95.70;;;;;;4966203;28;20468;-85
2022/10/31 14:46:30;;;;;;;;;;;;;;;;;;;;;
2022/10/31 14:50:03;;;;;;;;;;;;;;;;;;;;;
2022/10/31 14:54:05;;;;;;;14.80;4.30;;;19.60;96.20;;;;;;4914425;29;20488;-84
2022/10/31 14:57:49;;;;;;;;;;;;;;;;;;;;;
2022/10/31 15:01:27;;;;;;;7.03;4.10;;;19.90;95.60;;;;;;4810092;29;20543;-85
2022/10/31 15:12:31;;;;;;;7.13;4.10;;;20.10;95.00;;;;;;5099928;23;20910;-85
2022/10/31 15:15:55;;;;;;;6.70;4.33;;;19.90;95.00;;;;;;4971543;28;20466;-84
2022/10/31 15:18:28;;;;;;;8.23;3.97;;;19.90;95.00;;;;;;4942341;29;20486;-84
2022/10/31 15:21:20;;;;;;;8.17;4.10;;;19.90;95.00;;;;;;4939571;28;20560;-85
2022/10/31 15:27:40;;;;;;;7.60;4.60;;;19.80;94.90;;;;;;4910114;29;20462;-86
2022/10/31 15:30:49;;;;;;;7.50;4.30;;;19.90;94.60;;;;;;4907686;29;20489;-84
2022/10/31 15:34:09;;;;;;;4.70;3.90;;;19.90;94.60;;;;;;4902050;29;20545;-83
2022/10/31 15:37:37;;;;;;;9.87;4.50;;;19.90;94.50;;;;;;4886653;29;20473;-87
2022/10/31 15:40:28;;;;;;;5.30;3.90;;;19.80;94.60;;;;;;4867807;29;20547;-86
2022/10/31 15:43:22;;;;;;;6.43;4.40;;;19.60;94.90;;;;;;4889066;29;21072;-85
2022/10/31 15:46:22;;;;;;;8.10;4.00;;;19.70;94.60;;;;;;4892445;29;20468;-84
2022/10/31 15:49:04;;;;;;;5.40;3.73;;;19.70;94.90;;;;;;4888430;29;20475;-86
2022/10/31 15:52:22;;;;;;;5.37;4.40;;;19.70;94.70;;;;;;4889205;29;21301;-85
2022/10/31 15:55:12;;;;;;;5.63;3.37;;;19.60;95.00;;;;;;4937033;28;20457;-86
2022/10/31 15:58:03;;;;;;;5.30;3.33;;;19.50;94.80;;;;;;4964510;28;20487;-85
2022/10/31 16:01:43;;;;;;;7.40;3.70;;;19.60;94.90;;;;;;4961134;28;20489;-85
2022/10/31 16:05:19;;;;;;;7.93;3.70;;;19.50;94.80;;;;;;4864575;28;20475;-86
2022/10/31 16:08:18;;;;;;;6.23;4.00;;;19.40;95.00;;;;;;4974584;28;20459;-84
2022/10/31 16:11:58;;;;;;;10.50;3.73;;;19.30;94.90;;;;;;4960128;28;20472;-86
2022/10/31 16:14:33;;;;;;;6.23;3.93;;;19.30;95.30;;;;;;4878719;29;20467;-86
2022/10/31 16:17:11;;;;;;;6.93;6.23;;;19.30;95.50;;;;;;4884436;29;20478;-83
2022/10/31 16:19:53;;;;;;;4.40;4.00;;;19.30;95.40;;;;;;4967258;28;20494;-84
2022/10/31 16:22:40;;;;;;;11.03;5.40;;;19.20;95.40;;;;;;4970194;28;20537;-86
2022/10/31 16:25:22;;;;;;;8.73;3.93;;;19.30;95.60;;;;;;4968818;28;20470;-84
2022/10/31 16:27:58;;;;;;;9.97;4.60;;;19.20;95.70;;;;;;4968163;28;20522;-83
2022/10/31 16:30:39;;;;;;;9.10;4.33;;;19.20;95.70;;;;;;4970573;28;20510;-85
2022/10/31 16:33:24;;;;;;;7.30;4.33;;;19.10;96.00;;;;;;4967209;28;20492;-83
2022/10/31 16:36:02;;;;;;;5.50;4.27;;;19.20;96.30;;;;;;4955698;28;20486;-85
2022/10/31 16:39:17;;;;;;;12.73;5.50;;;19.20;96.10;;;;;;4980668;28;20517;-81
2022/10/31 16:42:03;;;;;;;6.80;4.17;;;19.10;96.60;;;;;;4963982;28;20462;-84
2022/10/31 16:44:55;;;;;;;9.43;4.77;;;19.10;96.20;;;;;;4961226;28;21031;-84
2022/10/31 16:47:37;;;;;;;10.50;4.87;;;19.00;96.30;;;;;;4969823;28;20474;-84
2022/10/31 16:50:25;;;;;;;6.83;4.53;;;18.90;97.10;;;;;;4952163;28;20485;-84
2022/10/31 16:52:57;;;;;;;5.60;4.50;;;18.80;96.90;;;;;;4953186;28;20553;-84
2022/10/31 16:56:00;;;;;;;6.50;5.07;;;18.80;97.20;;;;;;4951256;28;20466;-84
2022/10/31 16:58:56;;;;;;;11.13;5.33;;;19.00;97.00;;;;;;4950365;28;20455;-84
2022/10/31 17:01:42;;;;;;;10.53;4.73;;;19.00;96.70;;;;;;4950057;28;20486;-83
2022/10/31 17:04:31;;;;;;;9.03;5.27;;;19.10;96.70;;;;;;4961168;28;20550;-84
2022/10/31 17:06:58;;;;;;;5.63;3.73;;;19.10;96.40;;;;;;4950788;28;20469;-84
2022/10/31 17:09:30;;;;;;;6.90;4.20;;;19.10;96.40;;;;;;4967262;28;20468;-84
2022/10/31 17:12:17;;;;;;;7.37;4.73;;;19.00;96.50;;;;;;4964498;28;20568;-83
2022/10/31 17:14:51;;;;;;;6.83;4.97;;;18.80;96.70;;;;;;4962924;28;21339;-85
2022/10/31 17:17:19;;;;;;;6.17;4.27;;;18.80;96.90;;;;;;4951309;28;20471;-84
2022/10/31 17:19:49;;;;;;;6.90;4.30;;;18.80;97.20;;;;;;4968346;28;20481;-83
2022/10/31 17:22:28;;;;;;;6.50;4.53;;;18.90;96.70;;;;;;4962716;28;21066;-85
2022/10/31 17:25:00;;;;;;;9.67;4.33;;;18.70;96.70;;;;;;4964851;28;20503;-83
2022/10/31 17:27:27;;;;;;;8.83;4.27;;;18.80;96.60;;;;;;4966903;28;20459;-84
2022/10/31 17:29:56;;;;;;;8.27;4.30;;;18.60;96.80;;;;;;4949132;28;20513;-85
2022/10/31 17:32:31;;;;;;;11.17;4.70;;;18.80;96.90;;;;;;4964648;28;21220;-83
2022/10/31 17:35:11;;;;;;;6.17;4.50;;;18.80;96.60;;;;;;4946664;28;21036;-82
2022/10/31 17:37:59;;;;;;;7.50;4.50;;;18.60;96.90;;;;;;4966134;28;20519;-85
2022/10/31 17:40:36;;;;;;;5.33;4.20;;;18.50;97.00;;;;;;4943729;28;21043;-85
2022/10/31 17:43:14;;;;;;;13.90;4.57;;;18.40;97.30;;;;;;4970255;28;21069;-83
2022/10/31 17:46:02;;;;;;;6.33;4.40;;;18.60;97.20;;;;;;4952361;28;20475;-83
2022/10/31 17:48:45;;;;;;;6.40;3.77;;;18.60;96.70;;;;;;4951166;28;20469;-85
2022/10/31 17:51:21;;;;;;;7.17;5.33;;;18.90;96.20;;;;;;4966398;28;20486;-84
2022/10/31 17:54:02;;;;;;;8.50;4.03;;;18.90;96.00;;;;;;4966472;28;20478;-84
2022/10/31 17:59:58;;;;;;;5.43;4.17;;;18.80;96.10;;;;;;4965734;28;20470;-83
2022/10/31 18:02:38;;;;;;;8.40;5.20;;;18.70;96.40;;;;;;4951563;28;20509;-86
2022/10/31 18:05:26;;;;;;;8.50;4.37;;;18.80;96.10;;;;;;4968597;28;20479;-84
2022/10/31 18:08:16;;;;;;;8.93;5.03;;;18.70;96.10;;;;;;4968816;28;20522;-80
2022/10/31 18:11:27;;;;;;;9.13;4.37;;;18.80;96.40;;;;;;4956879;28;21258;-83
2022/10/31 18:14:11;;;;;;;9.90;4.60;;;18.80;96.10;;;;;;4967148;28;20459;-85
2022/10/31 18:16:56;;;;;;;7.30;4.90;;;18.80;96.30;;;;;;4951126;28;20461;-84
2022/10/31 18:19:36;;;;;;;11.53;5.83;;;18.70;96.50;;;;;;4955299;28;20443;-82
2022/10/31 18:22:25;;;;;;;8.37;5.07;;;18.80;96.30;;;;;;4965637;28;20451;-82
2022/10/31 18:25:22;;;;;;;8.40;4.60;;;18.70;96.40;;;;;;4959450;28;20470;-82
2022/10/31 18:28:41;;;;;;;;;;;;;;;;;;;;;
2022/10/31 18:31:47;;;;;;;7.27;5.03;;;18.70;96.30;;;;;;4976675;28;20721;-82
2022/10/31 18:34:50;;;;;;;5.93;4.40;;;18.50;96.70;;;;;;4956247;28;20984;-82
2022/10/31 18:37:53;;;;;;;4.53;3.97;;;18.40;97.10;;;;;;4950689;28;20522;-85
2022/10/31 18:40:42;;;;;;;10.03;5.30;;;18.40;96.60;;;;;;4958196;28;20470;-82
2022/10/31 18:43:38;;;;;;;10.50;4.53;;;18.50;96.70;;;;;;4950001;28;20466;-82
2022/10/31 18:46:16;;;;;;;7.17;4.60;;;18.30;96.90;;;;;;4973118;28;20498;-82
2022/10/31 18:49:06;;;;;;;4.67;4.20;;;18.10;97.30;;;;;;4969156;28;20462;-82
2022/10/31 18:52:14;;;;;;;5.63;4.20;;;18.00;97.60;;;;;;4970588;28;20475;-83